createdAt,value
2022-12-22T00:00:09.752Z,6.81
2022-12-22T00:03:00.769Z,6.85
2022-12-22T00:05:45.697Z,6.91
2022-12-22T00:08:30.829Z,7.03
2022-12-22T00:11:16.856Z,7.05
2022-12-22T00:14:04.417Z,7.14
2022-12-22T00:16:56.345Z,6.92
2022-12-22T00:19:41.903Z,7.06
2022-12-22T00:22:41.799Z,7.06
2022-12-22T00:25:32.158Z,7.03
2022-12-22T00:28:17.330Z,7.05
2022-12-22T00:31:04.078Z,6.95
2022-12-22T00:33:49.352Z,6.94
2022-12-22T00:36:34.326Z,6.96
2022-12-22T00:39:20.231Z,6.94
2022-12-22T00:42:04.990Z,6.82
2022-12-22T00:44:50.342Z,6.90
2022-12-22T00:47:43.765Z,6.93
2022-12-22T00:50:29.765Z,6.95
2022-12-22T00:53:16.436Z,6.85
2022-12-22T00:56:01.414Z,6.93
2022-12-22T00:58:49.673Z,6.95
2022-12-22T01:01:34.866Z,6.96
2022-12-22T01:04:19.770Z,7.01
2022-12-22T01:07:04.945Z,7.00
2022-12-22T01:09:50.115Z,7.00
2022-12-22T01:12:41.452Z,6.98
2022-12-22T01:15:36.392Z,7.00
2022-12-22T01:18:22.029Z,7.00
2022-12-22T01:21:07.384Z,6.91
2022-12-22T01:23:52.956Z,6.89
2022-12-22T01:26:39.258Z,6.91
2022-12-22T01:29:24.332Z,6.90
2022-12-22T01:32:09.237Z,6.92
2022-12-22T01:34:54.821Z,7.02
2022-12-22T01:37:40.082Z,7.01
2022-12-22T01:40:31.855Z,7.06
2022-12-22T01:43:20.246Z,7.13
2022-12-22T01:46:05.060Z,7.09
2022-12-22T01:48:51.321Z,7.05
2022-12-22T01:51:43.578Z,7.03
2022-12-22T01:54:30.672Z,7.04
2022-12-22T01:57:15.970Z,7.01
2022-12-22T02:00:01.987Z,7.03
2022-12-22T02:02:57.270Z,6.97
2022-12-22T02:05:42.394Z,6.98
2022-12-22T02:08:44.093Z,7.02
2022-12-22T02:11:48.507Z,7.01
2022-12-22T02:14:44.471Z,7.09
2022-12-22T02:44:12.311Z,7.19
2022-12-22T02:47:12.720Z,7.14
2022-12-22T02:50:05.268Z,7.17
2022-12-22T02:52:54.852Z,7.25
2022-12-22T02:55:40.494Z,7.19
2022-12-22T02:58:25.475Z,7.27
2022-12-22T03:01:10.874Z,7.34
2022-12-22T03:03:56.149Z,7.31
2022-12-22T03:06:41.109Z,7.37
2022-12-22T03:09:26.036Z,7.42
2022-12-22T03:12:10.928Z,7.41
2022-12-22T03:14:55.993Z,7.44
2022-12-22T03:17:41.205Z,7.48
2022-12-22T03:20:26.859Z,7.52
2022-12-22T03:23:12.022Z,7.56
2022-12-22T03:25:50.409Z,7.64
2022-12-22T03:28:16.823Z,7.66
2022-12-22T03:30:43.258Z,7.58
2022-12-22T03:33:09.639Z,7.55
2022-12-22T03:35:36.046Z,7.59
2022-12-22T03:38:03.465Z,7.63
2022-12-22T03:40:32.875Z,7.56
2022-12-22T03:43:18.037Z,7.58
2022-12-22T03:46:02.994Z,7.51
2022-12-22T03:48:29.404Z,7.58
2022-12-22T03:50:55.818Z,7.58
2022-12-22T03:53:22.271Z,7.53
2022-12-22T03:55:48.771Z,7.53
2022-12-22T03:58:15.194Z,7.60
2022-12-22T04:00:41.691Z,7.64
2022-12-22T04:03:08.335Z,7.67
2022-12-22T04:05:35.395Z,7.71
2022-12-22T04:08:01.815Z,7.72
2022-12-22T04:10:46.788Z,7.77
2022-12-22T04:13:13.183Z,7.79
2022-12-22T04:15:39.606Z,7.80
2022-12-22T04:18:06.018Z,7.81
2022-12-22T04:20:32.567Z,7.80
2022-12-22T04:22:59.132Z,7.67
2022-12-22T04:25:26.674Z,7.72
2022-12-22T04:27:53.251Z,7.71
2022-12-22T04:30:19.670Z,7.71
2022-12-22T04:32:46.139Z,7.68
2022-12-22T04:35:12.531Z,7.70
2022-12-22T04:37:38.935Z,7.67
2022-12-22T04:40:06.049Z,7.68
2022-12-22T04:42:32.455Z,7.71
2022-12-22T04:44:58.927Z,7.66
2022-12-22T04:47:25.316Z,7.69
2022-12-22T04:49:51.712Z,7.68
2022-12-22T04:52:18.151Z,7.70
2022-12-22T04:54:44.551Z,7.68
2022-12-22T04:57:11.336Z,7.73
2022-12-22T04:59:37.765Z,7.71
2022-12-22T05:02:04.464Z,7.71
2022-12-22T05:04:31.051Z,7.70
2022-12-22T05:06:57.441Z,7.74
2022-12-22T05:09:23.818Z,7.75
2022-12-22T05:11:50.224Z,7.73
2022-12-22T05:14:17.097Z,7.82
2022-12-22T05:16:43.628Z,7.78
2022-12-22T05:19:10.186Z,7.82
2022-12-22T05:21:36.613Z,7.80
2022-12-22T05:24:03.245Z,7.89
2022-12-22T05:26:29.852Z,7.83
2022-12-22T05:28:56.338Z,7.87
2022-12-22T05:31:24.784Z,7.90
2022-12-22T05:33:51.365Z,7.90
2022-12-22T05:36:18.210Z,7.89
2022-12-22T05:38:45.553Z,7.95
2022-12-22T05:41:12.036Z,7.92
2022-12-22T05:43:38.684Z,7.92
2022-12-22T05:46:07.304Z,8.00
2022-12-22T05:48:38.552Z,8.06
2022-12-22T05:51:07.752Z,8.08
2022-12-22T05:53:34.282Z,8.06
2022-12-22T05:56:00.760Z,8.10
2022-12-22T05:58:27.185Z,8.06
2022-12-22T06:00:56.820Z,8.15
2022-12-22T06:03:27.416Z,8.09
2022-12-22T06:05:54.646Z,8.15
2022-12-22T06:08:21.234Z,8.12
2022-12-22T06:10:48.720Z,8.13
2022-12-22T06:13:15.225Z,8.18
2022-12-22T06:15:41.683Z,8.17
2022-12-22T06:18:08.113Z,8.19
2022-12-22T06:20:34.508Z,8.22
2022-12-22T06:23:00.914Z,8.18
2022-12-22T06:25:30.191Z,8.22
2022-12-22T06:27:56.600Z,8.20
2022-12-22T06:30:29.099Z,8.16
2022-12-22T06:32:59.981Z,8.16
2022-12-22T06:35:26.391Z,8.23
2022-12-22T06:37:52.820Z,8.16
2022-12-22T06:40:22.127Z,8.16
2022-12-22T06:43:09.101Z,8.21
2022-12-22T06:45:41.034Z,8.27
2022-12-22T06:48:09.133Z,8.18
2022-12-22T06:50:35.620Z,8.21
2022-12-22T06:53:03.277Z,8.26
2022-12-22T06:55:33.436Z,8.27
2022-12-22T06:57:59.932Z,8.30
2022-12-22T07:00:29.558Z,8.32
2022-12-22T07:02:56.265Z,8.37
2022-12-22T07:05:26.378Z,8.42
2022-12-22T07:07:53.365Z,8.43
2022-12-22T07:10:39.919Z,8.40
2022-12-22T07:13:19.304Z,8.40
2022-12-22T07:15:52.069Z,8.43
2022-12-22T07:18:24.230Z,8.44
2022-12-22T07:20:50.643Z,8.42
2022-12-22T07:23:17.102Z,8.40
2022-12-22T07:25:47.282Z,8.45
2022-12-22T07:28:18.473Z,8.47
2022-12-22T07:30:47.035Z,8.41
2022-12-22T07:33:17.655Z,8.42
2022-12-22T07:35:44.222Z,8.40
2022-12-22T07:38:10.691Z,8.36
2022-12-22T07:40:42.393Z,8.42
2022-12-22T07:43:09.961Z,8.42
2022-12-22T07:45:36.499Z,8.45
2022-12-22T07:48:26.807Z,8.56
2022-12-22T07:51:04.535Z,8.48
2022-12-22T07:53:32.375Z,8.53
2022-12-22T07:56:01.782Z,8.54
2022-12-22T07:58:28.181Z,8.56
2022-12-22T08:01:01.270Z,8.59
2022-12-22T08:03:27.958Z,8.55
2022-12-22T08:05:57.341Z,8.57
2022-12-22T08:08:23.772Z,8.61
2022-12-22T08:10:50.163Z,8.65
2022-12-22T08:13:16.921Z,8.62
2022-12-22T08:15:43.325Z,8.63
2022-12-22T08:18:09.733Z,8.66
2022-12-22T08:20:38.747Z,8.65
2022-12-22T08:23:06.301Z,8.68
2022-12-22T08:25:33.988Z,8.66
2022-12-22T08:28:00.941Z,8.60
2022-12-22T08:30:28.345Z,8.70
2022-12-22T08:32:54.780Z,8.74
2022-12-22T08:35:21.239Z,8.70
2022-12-22T08:37:48.462Z,8.74
2022-12-22T08:40:20.818Z,8.75
2022-12-22T08:42:50.103Z,8.76
2022-12-22T08:45:16.521Z,8.79
2022-12-22T08:47:42.955Z,8.78
2022-12-22T08:50:09.977Z,8.79
2022-12-22T08:52:36.514Z,8.86
2022-12-22T08:55:03.229Z,8.70
2022-12-22T08:57:29.708Z,8.77
2022-12-22T08:59:56.178Z,8.70
2022-12-22T09:02:22.728Z,8.75
2022-12-22T09:04:49.255Z,8.80
2022-12-22T09:07:16.067Z,8.81
2022-12-22T09:09:42.484Z,8.81
2022-12-22T09:12:09.089Z,8.86
2022-12-22T09:14:35.494Z,8.87
2022-12-22T09:17:02.004Z,8.90
2022-12-22T09:19:28.460Z,8.88
2022-12-22T09:21:55.359Z,8.85
2022-12-22T09:24:21.797Z,8.86
2022-12-22T09:26:48.215Z,8.89
2022-12-22T09:29:15.422Z,8.93
2022-12-22T09:31:42.478Z,8.88
2022-12-22T09:34:15.169Z,8.88
2022-12-22T09:36:44.066Z,8.98
2022-12-22T09:39:11.008Z,9.04
2022-12-22T09:41:44.707Z,9.08
2022-12-22T09:44:40.348Z,9.09
2022-12-22T09:47:26.053Z,9.03
2022-12-22T09:49:55.967Z,9.05
2022-12-22T09:52:30.708Z,9.03
2022-12-22T09:54:57.120Z,9.07
2022-12-22T09:57:29.220Z,9.08
2022-12-22T09:59:58.008Z,9.11
2022-12-22T10:03:02.872Z,9.04
2022-12-22T10:05:42.004Z,9.00
2022-12-22T10:08:15.551Z,9.04
2022-12-22T10:10:42.551Z,9.10
2022-12-22T10:13:17.957Z,9.12
2022-12-22T10:15:44.677Z,9.14
2022-12-22T10:18:24.035Z,9.08
2022-12-22T10:21:05.632Z,9.13
2022-12-22T10:23:35.422Z,9.14
2022-12-22T10:26:31.888Z,9.13
2022-12-22T10:29:03.650Z,9.18
2022-12-22T10:31:35.140Z,9.17
2022-12-22T10:34:16.478Z,9.24
2022-12-22T10:36:48.661Z,9.27
2022-12-22T10:39:24.375Z,9.32
2022-12-22T10:41:55.082Z,9.36
2022-12-22T10:44:25.951Z,9.38
2022-12-22T10:46:55.212Z,9.30
2022-12-22T10:52:30.561Z,9.34
2022-12-22T10:55:18.518Z,9.33
2022-12-22T10:57:44.942Z,9.38
2022-12-22T11:00:29.506Z,9.44
2022-12-22T11:02:58.520Z,9.43
2022-12-22T11:05:25.580Z,9.31
2022-12-22T11:07:53.361Z,9.41
2022-12-22T11:10:43.520Z,9.44
2022-12-22T11:13:27.711Z,9.49
2022-12-22T11:16:00.187Z,9.47
2022-12-22T11:18:45.674Z,9.48
2022-12-22T11:21:24.277Z,9.59
2022-12-22T11:24:22.888Z,9.57
2022-12-22T11:27:05.080Z,9.66
2022-12-22T11:29:56.232Z,9.68
2022-12-22T11:32:37.469Z,9.57
2022-12-22T11:35:14.348Z,9.49
2022-12-22T11:37:51.448Z,9.63
2022-12-22T11:40:34.656Z,9.61
2022-12-22T11:43:39.742Z,9.61
2022-12-22T11:46:41.568Z,9.56
2022-12-22T11:49:40.992Z,9.52
2022-12-22T11:52:21.446Z,9.57
2022-12-22T11:55:13.713Z,9.69
2022-12-22T11:57:48.920Z,9.73
2022-12-22T12:00:19.966Z,9.76
2022-12-22T12:02:52.700Z,9.77
2022-12-22T12:05:40.219Z,9.79
2022-12-22T12:08:44.265Z,9.66
2022-12-22T12:11:32.394Z,9.81
2022-12-22T12:14:24.634Z,9.71
2022-12-22T12:17:18.091Z,9.91
2022-12-22T12:19:59.917Z,9.85
2022-12-22T12:22:52.016Z,9.87
2022-12-22T12:25:31.340Z,9.90
2022-12-22T12:28:19.408Z,9.87
2022-12-22T12:30:53.687Z,9.94
2022-12-22T12:33:46.706Z,9.92
2022-12-22T12:36:28.060Z,9.91
2022-12-22T12:39:33.939Z,9.92
2022-12-22T12:42:39.206Z,9.89
2022-12-22T12:45:38.420Z,9.96
2022-12-22T12:48:20.132Z,10.05
2022-12-22T12:51:32.388Z,10.08
2022-12-22T12:54:30.214Z,10.10
2022-12-22T12:57:23.113Z,10.17
2022-12-22T12:59:51.571Z,10.11
2022-12-22T13:02:27.302Z,10.12
2022-12-22T13:05:12.953Z,10.15
2022-12-22T13:08:14.575Z,10.09
2022-12-22T13:10:51.650Z,10.12
2022-12-22T13:13:23.876Z,10.06
2022-12-22T13:15:59.478Z,10.06
2022-12-22T13:18:26.066Z,10.07
2022-12-22T13:21:33.865Z,10.06
2022-12-22T13:24:28.526Z,10.07
2022-12-22T13:27:01.820Z,10.07
2022-12-22T13:29:44.210Z,10.02
2022-12-22T13:32:25.558Z,10.26
2022-12-22T13:38:00.019Z,10.16
2022-12-22T13:40:32.294Z,10.12
2022-12-22T13:43:05.086Z,10.03
2022-12-22T13:45:35.834Z,9.94
2022-12-22T13:48:08.331Z,9.92
2022-12-22T13:50:44.292Z,9.88
2022-12-22T13:53:34.456Z,9.95
2022-12-22T13:56:02.358Z,9.70
2022-12-22T13:58:33.844Z,9.92
2022-12-22T14:01:14.232Z,9.94
2022-12-22T14:04:00.357Z,9.86
2022-12-22T14:06:31.121Z,9.81
2022-12-22T14:09:29.813Z,9.71
2022-12-22T14:12:02.088Z,9.81
2022-12-22T14:14:33.920Z,9.83
2022-12-22T14:17:01.494Z,9.79
2022-12-22T14:19:32.808Z,9.76
2022-12-22T14:22:14.132Z,9.59
2022-12-22T14:25:03.293Z,9.55
2022-12-22T14:27:40.046Z,9.62
2022-12-22T14:30:14.979Z,9.64
2022-12-22T14:32:49.242Z,9.55
2022-12-22T14:35:20.615Z,9.61
2022-12-22T14:38:09.609Z,9.55
2022-12-22T14:40:38.818Z,9.50
2022-12-22T14:43:13.248Z,9.58
2022-12-22T14:45:39.840Z,9.63
2022-12-22T14:48:09.406Z,9.55
2022-12-22T14:50:36.570Z,9.64
2022-12-22T14:53:05.256Z,9.45
2022-12-22T14:55:39.567Z,9.61
2022-12-22T14:58:08.964Z,9.64
2022-12-22T15:00:41.628Z,9.58
2022-12-22T15:03:32.889Z,9.64
2022-12-22T15:06:24.222Z,9.66
2022-12-22T15:08:54.356Z,9.59
2022-12-22T15:11:24.162Z,9.48
2022-12-22T15:13:54.699Z,9.54
2022-12-22T15:16:22.985Z,9.57
2022-12-22T15:18:52.864Z,9.54
2022-12-22T15:21:20.557Z,9.53
2022-12-22T15:23:47.296Z,9.52
2022-12-22T15:26:13.781Z,9.54
2022-12-22T15:28:40.273Z,9.55
2022-12-22T15:31:25.073Z,9.63
2022-12-22T15:33:52.850Z,9.62
2022-12-22T15:36:19.266Z,9.62
2022-12-22T15:38:45.674Z,9.57
2022-12-22T15:41:12.061Z,9.54
2022-12-22T15:43:57.151Z,9.50
2022-12-22T15:46:24.835Z,9.47
2022-12-22T15:48:51.411Z,9.55
2022-12-22T15:51:22.421Z,9.42
2022-12-22T15:53:48.888Z,9.35
2022-12-22T15:56:20.286Z,9.34
2022-12-22T15:58:47.278Z,9.35
2022-12-22T16:01:13.705Z,9.31
2022-12-22T16:03:40.322Z,9.18
2022-12-22T16:06:13.488Z,9.11
2022-12-22T16:08:42.161Z,9.21
2022-12-22T16:11:09.082Z,9.24
2022-12-22T16:13:37.314Z,9.34
2022-12-22T16:16:04.140Z,9.23
2022-12-22T16:18:30.598Z,9.26
2022-12-22T16:21:04.534Z,9.90
2022-12-22T16:23:30.993Z,9.36
2022-12-22T16:26:02.028Z,9.70
2022-12-22T16:28:34.568Z,9.53
2022-12-22T16:31:01.315Z,9.55
2022-12-22T16:33:27.809Z,9.47
2022-12-22T16:35:54.209Z,9.40
2022-12-22T16:38:20.795Z,9.42
2022-12-22T16:40:50.362Z,9.40
2022-12-22T16:46:17.060Z,9.16
2022-12-22T16:48:56.698Z,9.18
2022-12-22T16:51:25.023Z,9.21
2022-12-22T16:53:51.644Z,9.08
2022-12-22T16:56:20.836Z,9.15
2022-12-22T16:58:47.939Z,9.08
2022-12-22T17:01:38.860Z,9.06
2022-12-22T17:04:13.558Z,8.85
2022-12-22T17:06:58.622Z,8.75
2022-12-22T17:09:39.758Z,8.74
2022-12-22T17:12:07.205Z,8.71
2022-12-22T17:14:38.582Z,8.61
2022-12-22T17:17:05.012Z,8.69
2022-12-22T17:19:31.404Z,8.62
2022-12-22T17:21:58.859Z,8.58
2022-12-22T17:24:28.485Z,8.54
2022-12-22T17:26:59.341Z,8.58
2022-12-22T17:29:25.825Z,8.44
2022-12-22T17:31:56.194Z,8.45
2022-12-22T17:34:22.780Z,8.37
2022-12-22T17:36:49.588Z,8.34
2022-12-22T17:39:21.016Z,8.28
2022-12-22T17:41:52.261Z,8.22
2022-12-22T17:44:37.534Z,8.29
2022-12-22T17:47:15.052Z,8.35
2022-12-22T17:50:07.413Z,8.41
2022-12-22T17:52:33.992Z,8.50
2022-12-22T17:55:00.394Z,8.53
2022-12-22T17:57:32.619Z,8.48
2022-12-22T18:00:18.182Z,8.51
2022-12-22T18:02:45.356Z,8.43
2022-12-22T18:05:24.527Z,8.31
2022-12-22T18:07:51.445Z,8.37
2022-12-22T18:10:22.634Z,8.36
2022-12-22T18:12:49.231Z,8.32
2022-12-22T18:15:22.427Z,8.18
2022-12-22T18:17:48.981Z,8.08
2022-12-22T18:20:21.021Z,8.06
2022-12-22T18:22:56.982Z,8.14
2022-12-22T18:25:26.792Z,8.04
2022-12-22T18:27:53.344Z,8.11
2022-12-22T18:30:22.699Z,8.16
2022-12-22T18:32:50.410Z,8.13
2022-12-22T18:35:18.759Z,8.23
2022-12-22T18:37:45.194Z,8.11
2022-12-22T18:40:38.450Z,7.98
2022-12-22T18:43:13.963Z,8.07
2022-12-22T18:45:40.556Z,8.14
2022-12-22T18:48:06.967Z,7.98
2022-12-22T18:50:34.035Z,7.99
2022-12-22T18:53:07.166Z,8.07
2022-12-22T18:55:33.570Z,7.99
2022-12-22T18:58:00.520Z,7.93
2022-12-22T19:00:29.660Z,7.95
2022-12-22T19:03:00.649Z,7.94
2022-12-22T19:05:28.297Z,7.82
2022-12-22T19:07:55.441Z,7.88
2022-12-22T19:10:41.231Z,7.87
2022-12-22T19:13:17.493Z,7.96
2022-12-22T19:15:43.936Z,7.85
2022-12-22T19:18:18.679Z,7.82
2022-12-22T19:20:49.532Z,7.77
2022-12-22T19:23:17.937Z,7.81
2022-12-22T19:25:46.751Z,7.83
2022-12-22T19:28:27.059Z,7.77
2022-12-22T19:30:54.989Z,7.75
2022-12-22T19:33:35.573Z,7.81
2022-12-22T19:36:02.518Z,7.68
2022-12-22T19:38:30.366Z,7.65
2022-12-22T19:41:01.237Z,7.68
2022-12-22T19:43:29.183Z,7.68
2022-12-22T19:45:56.326Z,7.63
2022-12-22T19:48:24.840Z,7.56
2022-12-22T19:50:52.813Z,7.53
2022-12-22T19:53:19.901Z,7.51
2022-12-22T19:55:50.936Z,7.40
2022-12-22T19:58:26.440Z,7.31
2022-12-22T20:00:54.356Z,7.38
2022-12-22T20:03:24.833Z,7.25
2022-12-22T20:05:52.028Z,7.28
2022-12-22T20:08:18.721Z,7.26
2022-12-22T20:10:46.542Z,7.26
2022-12-22T20:13:16.580Z,7.22
2022-12-22T20:15:43.809Z,7.22
2022-12-22T20:18:23.720Z,7.25
2022-12-22T20:20:57.790Z,7.10
2022-12-22T20:23:24.840Z,7.19
2022-12-22T20:26:03.774Z,7.18
2022-12-22T20:28:33.369Z,7.21
2022-12-22T20:31:02.424Z,7.20
2022-12-22T20:33:30.137Z,7.24
2022-12-22T20:35:58.573Z,7.18
2022-12-22T20:38:39.760Z,7.17
2022-12-22T20:41:07.521Z,7.30
2022-12-22T20:43:36.175Z,7.36
2022-12-22T20:46:20.326Z,7.34
2022-12-22T20:48:53.823Z,7.30
2022-12-22T20:51:20.924Z,7.39
2022-12-22T20:53:48.190Z,7.45
2022-12-22T20:56:37.147Z,7.33
2022-12-22T20:59:20.119Z,7.38
2022-12-22T21:01:47.917Z,7.30
2022-12-22T21:04:15.763Z,7.27
2022-12-22T21:06:49.313Z,7.25
2022-12-22T21:09:16.423Z,7.21
2022-12-22T22:24:48.596Z,7.03
2022-12-22T22:27:15.021Z,7.07
2022-12-22T22:29:41.431Z,7.08
2022-12-22T22:32:07.847Z,7.11
2022-12-22T22:34:34.281Z,7.07
2022-12-22T22:37:00.743Z,7.09
2022-12-22T22:39:27.219Z,7.07
2022-12-22T22:41:53.640Z,7.06
2022-12-22T22:44:20.077Z,7.15
2022-12-22T22:46:46.611Z,7.05
2022-12-22T22:49:13.070Z,7.06
2022-12-22T22:51:39.478Z,7.07
2022-12-22T22:54:05.964Z,6.99
2022-12-22T22:56:32.387Z,7.11
2022-12-22T22:58:59.466Z,6.99
2022-12-22T23:01:25.913Z,7.13
2022-12-22T23:03:52.511Z,7.04
2022-12-22T23:06:19.987Z,6.97
2022-12-22T23:08:48.339Z,6.92
2022-12-22T23:11:15.060Z,7.09
2022-12-22T23:13:42.492Z,6.98
2022-12-22T23:16:09.532Z,7.09
2022-12-22T23:18:36.080Z,7.07
2022-12-22T23:21:05.058Z,7.11
2022-12-22T23:23:33.073Z,7.03
2022-12-22T23:25:59.492Z,7.07
2022-12-22T23:28:26.159Z,7.16
2022-12-22T23:30:53.228Z,7.27
2022-12-22T23:33:20.497Z,7.29
2022-12-22T23:35:49.227Z,7.31
2022-12-22T23:38:18.206Z,7.26
2022-12-22T23:41:00.050Z,7.27
2022-12-22T23:43:26.487Z,7.30
2022-12-22T23:45:52.890Z,7.23
2022-12-22T23:48:19.277Z,7.17
2022-12-22T23:50:46.653Z,7.19
2022-12-22T23:53:13.335Z,7.11
2022-12-22T23:55:47.363Z,7.14
2022-12-22T23:58:13.961Z,7.09
